In Rescue
 
Open Full Screen Window  High Contrast Mode
August 12, 2020 1:48 AM EDT
Weather Information
Wind Direction
  ---
Wind Speed
  00 kt (0 mph)
Wind Gust
  00 kt (0 mph)
Altimeter
30.04 in
Visibility
10 SM
Temperature
17° C
63° F
Dewpoint
17° C
63° F
Humidity
100%
Sky Condition
Clear
VFR

METAR KAXV 120548Z AUTO 00000KT 10SM CLR 17/17 A3004 RMK AO2

FAA Disclaimer: The data displayed is for advisory purposes only and is not to be used for flight planning or operations.